Карточка аэропорта ULMM

Внимание!
Информация на этой странице в стадии наполнения.
Если вы не увидели какой-то информации, или заметили неточность - пожалуйста сообщите нам!
Спасибо!
Команда RU-STAFF
Название аэропортаМурманск
Название аэропорта (англ.)Murmansk
Превышение267 ft. (81.4 m.)
Координаты68°46.902', 32°45.066'
Высота перехода4000 feet
Эшелон переходаQNH>=1013hPa:FL050; QNH<1013hPa:FL060; QNH<977hPa:FL070
Коды ответчика3101-3117
Зона ОрВДСанкт-Петербург РПИ (ULLL)
Данные METARULMM 272130Z 15002MPS 9999 BKN024 06/05 Q1019 R13/090070 NOSIG RMK QFE758
Проноз погоды (TAF)ULMM 271950Z 2721/2821 16003MPS 9999 BKN016
NOTAMshow/hide NOTAM
AWOS   TABLE

Информация о ВПП

ВПП Длина ВПП (м.) Покрытие Курс ВПП Частота ILS
132500Асфальтобетон131110.3
312500Асфальтобетон311108.5

Диспетчерские позиции

Позывной Наименование органа УВД Частота
ULMM_TWRМурманск-Вышка120.7
ULMM_R_APPMurmansk Radar120.3



Спутниковое изображение